createdAt,value
2022-09-10T00:01:04.527Z,14.48
2022-09-10T00:03:32.509Z,14.47
2022-09-10T00:06:00.345Z,14.44
2022-09-10T00:08:28.526Z,14.41
2022-09-10T00:10:57.370Z,14.42
2022-09-10T00:13:25.300Z,14.41
2022-09-10T00:15:55.116Z,14.37
2022-09-10T00:18:23.988Z,14.36
2022-09-10T00:20:52.718Z,14.35
2022-09-10T00:23:21.571Z,14.35
2022-09-10T00:25:49.337Z,14.34
2022-09-10T00:28:17.324Z,14.33
2022-09-10T00:30:46.544Z,14.31
2022-09-10T00:33:16.323Z,14.28
2022-09-10T00:35:44.691Z,14.28
2022-09-10T00:38:13.671Z,14.27
2022-09-10T00:40:41.920Z,14.26
2022-09-10T00:43:12.692Z,14.24
2022-09-10T00:45:41.064Z,14.24
2022-09-10T00:48:15.354Z,14.23
2022-09-10T00:50:45.473Z,14.20
2022-09-10T00:53:15.634Z,14.21
2022-09-10T00:55:45.094Z,14.20
2022-09-10T00:58:15.208Z,14.16
2022-09-10T01:00:43.268Z,14.13
2022-09-10T01:03:12.816Z,14.15
2022-09-10T01:05:42.452Z,14.15
2022-09-10T01:08:14.741Z,14.12
2022-09-10T01:10:49.470Z,14.13
2022-09-10T01:13:31.904Z,14.12
2022-09-10T01:16:04.105Z,14.11
2022-09-10T01:18:35.240Z,14.07
2022-09-10T01:21:12.235Z,14.05
2022-09-10T01:24:03.870Z,14.05
2022-09-10T01:26:39.576Z,14.04
2022-09-10T01:29:10.923Z,14.04
2022-09-10T01:31:43.636Z,14.03
2022-09-10T01:34:16.829Z,14.02
2022-09-10T01:36:48.093Z,14.00
2022-09-10T01:39:18.998Z,13.97
2022-09-10T01:41:48.374Z,13.97
2022-09-10T01:44:31.581Z,13.96
2022-09-10T01:47:05.980Z,13.94
2022-09-10T01:49:39.315Z,13.93
2022-09-10T01:52:15.182Z,13.90
2022-09-10T01:54:49.796Z,13.88
2022-09-10T01:57:27.904Z,13.88
2022-09-10T02:00:02.925Z,13.91
2022-09-10T02:02:45.599Z,13.88
2022-09-10T02:05:14.548Z,13.87
2022-09-10T02:07:44.882Z,13.84
2022-09-10T02:10:12.818Z,13.82
2022-09-10T02:12:46.279Z,13.82
2022-09-10T02:15:33.909Z,13.79
2022-09-10T02:18:13.169Z,13.77
2022-09-10T02:20:41.472Z,13.74
2022-09-10T02:23:12.279Z,13.73
2022-09-10T02:25:40.071Z,13.73
2022-09-10T02:28:08.857Z,13.71
2022-09-10T02:30:36.712Z,13.70
2022-09-10T02:33:04.598Z,13.65
2022-09-10T02:35:33.830Z,13.71
2022-09-10T02:38:01.841Z,13.68
2022-09-10T02:40:31.834Z,13.64
2022-09-10T02:42:59.858Z,13.64
2022-09-10T02:45:29.424Z,13.63
2022-09-10T02:47:57.262Z,13.68
2022-09-10T02:50:25.496Z,13.68
2022-09-10T02:52:55.551Z,13.68
2022-09-10T02:55:23.444Z,13.70
2022-09-10T02:57:51.232Z,13.72
2022-09-10T03:00:19.871Z,13.71
2022-09-10T03:02:48.017Z,13.74
2022-09-10T03:05:16.281Z,13.72
2022-09-10T03:07:44.870Z,13.73
2022-09-10T03:10:14.390Z,13.78
2022-09-10T03:12:42.320Z,13.78
2022-09-10T03:15:12.831Z,13.83
2022-09-10T03:17:40.780Z,13.86
2022-09-10T03:20:09.138Z,13.85
2022-09-10T03:22:38.345Z,13.88
2022-09-10T03:25:06.929Z,13.89
2022-09-10T03:27:37.426Z,13.90
2022-09-10T03:30:07.576Z,13.91
2022-09-10T03:32:35.816Z,13.93
2022-09-10T03:35:06.089Z,13.96
2022-09-10T03:37:33.958Z,13.97
2022-09-10T03:40:03.132Z,13.99
2022-09-10T03:42:31.102Z,13.98
2022-09-10T03:45:00.586Z,14.03
2022-09-10T03:47:28.440Z,14.03
2022-09-10T03:49:56.422Z,14.01
2022-09-10T03:52:26.629Z,14.04
2022-09-10T03:54:54.416Z,14.04
2022-09-10T03:57:22.518Z,14.05
2022-09-10T03:59:50.995Z,14.06
2022-09-10T04:02:20.185Z,14.09
2022-09-10T04:04:48.425Z,14.10
2022-09-10T04:07:16.360Z,14.15
2022-09-10T04:09:44.205Z,14.11
2022-09-10T04:12:13.179Z,14.13
2022-09-10T04:14:41.327Z,14.12
2022-09-10T04:17:09.772Z,14.12
2022-09-10T04:19:40.866Z,14.12
2022-09-10T04:22:08.651Z,14.11
2022-09-10T04:24:36.583Z,14.05
2022-09-10T04:27:04.939Z,14.08
2022-09-10T04:29:33.504Z,14.07
2022-09-10T04:32:01.878Z,14.09
2022-09-10T04:34:32.286Z,14.10
2022-09-10T04:37:01.798Z,14.10
2022-09-10T04:39:31.225Z,14.12
2022-09-10T04:41:59.725Z,14.12
2022-09-10T04:44:27.930Z,14.13
2022-09-10T04:46:55.790Z,14.13
2022-09-10T04:49:23.629Z,14.15
2022-09-10T04:51:51.646Z,14.11
2022-09-10T04:54:21.421Z,14.09
2022-09-10T04:56:49.733Z,14.11
2022-09-10T04:59:18.434Z,14.12
2022-09-10T05:01:47.605Z,14.13
2022-09-10T05:04:15.583Z,14.11
2022-09-10T05:06:43.686Z,14.09
2022-09-10T05:09:12.516Z,14.09
2022-09-10T05:11:42.808Z,14.11
2022-09-10T05:14:11.977Z,14.11
2022-09-10T05:16:39.962Z,14.15
2022-09-10T05:19:08.262Z,14.16
2022-09-10T05:21:44.825Z,14.18
2022-09-10T05:24:12.846Z,14.17
2022-09-10T05:26:42.330Z,14.21
2022-09-10T05:29:11.450Z,14.23
2022-09-10T05:31:41.153Z,14.22
2022-09-10T05:34:10.151Z,14.23
2022-09-10T05:36:39.169Z,14.24
2022-09-10T05:39:07.166Z,14.24
2022-09-10T05:41:38.056Z,14.25
2022-09-10T05:44:09.010Z,14.23
2022-09-10T05:46:36.916Z,14.23
2022-09-10T05:49:13.146Z,14.24
2022-09-10T05:51:42.159Z,14.23
2022-09-10T05:54:11.598Z,14.23
2022-09-10T05:56:40.726Z,14.23
2022-09-10T05:59:10.677Z,14.23
2022-09-10T06:01:41.304Z,14.22
2022-09-10T06:04:10.287Z,14.24
2022-09-10T06:06:38.250Z,14.23
2022-09-10T06:09:09.726Z,14.23
2022-09-10T06:12:03.539Z,14.24
2022-09-10T06:14:33.065Z,14.24
2022-09-10T06:17:00.979Z,14.27
2022-09-10T06:19:30.816Z,14.25
2022-09-10T06:22:00.647Z,14.24
2022-09-10T06:24:29.954Z,14.25
2022-09-10T06:26:59.455Z,14.25
2022-09-10T06:29:30.485Z,14.27
2022-09-10T06:32:00.899Z,14.27
2022-09-10T06:34:28.697Z,14.26
2022-09-10T06:36:58.318Z,14.29
2022-09-10T06:39:29.658Z,14.35
2022-09-10T06:42:01.210Z,14.29
2022-09-10T06:44:52.463Z,14.36
2022-09-10T06:48:32.436Z,14.37
2022-09-10T06:50:22.089Z,14.39
2022-09-10T06:52:53.887Z,14.40
2022-09-10T06:55:23.699Z,14.43
2022-09-10T06:57:51.583Z,14.44
2022-09-10T07:00:19.535Z,14.47
2022-09-10T07:02:54.297Z,14.53
2022-09-10T07:05:23.729Z,14.52
2022-09-10T07:07:52.472Z,14.57
2022-09-10T07:10:20.995Z,14.53
2022-09-10T07:12:49.024Z,14.58
2022-09-10T07:15:17.522Z,14.53
2022-09-10T07:17:45.501Z,14.54
2022-09-10T07:20:15.025Z,14.58
2022-09-10T07:22:47.647Z,14.68
2022-09-10T07:25:18.699Z,14.65
2022-09-10T07:28:02.102Z,14.72
2022-09-10T07:30:32.448Z,14.73
2022-09-10T07:33:00.511Z,14.76
2022-09-10T07:35:31.737Z,14.83
2022-09-10T07:38:00.653Z,14.83
2022-09-10T07:40:29.322Z,14.89
2022-09-10T07:42:59.145Z,14.91
2022-09-10T07:45:28.919Z,14.95
2022-09-10T07:47:56.927Z,15.00
2022-09-10T07:50:24.858Z,15.01
2022-09-10T07:52:56.404Z,15.05
2022-09-10T07:55:26.113Z,15.07
2022-09-10T07:57:59.896Z,15.12
2022-09-10T08:00:29.328Z,15.15
2022-09-10T08:03:00.921Z,15.21
2022-09-10T08:05:28.835Z,15.19
2022-09-10T08:07:58.948Z,15.22
2022-09-10T08:10:28.179Z,15.24
2022-09-10T08:12:59.478Z,15.28
2022-09-10T08:15:27.879Z,15.33
2022-09-10T08:17:56.964Z,15.27
2022-09-10T08:20:25.211Z,15.39
2022-09-10T08:22:54.396Z,15.53
2022-09-10T08:25:23.652Z,15.68
2022-09-10T08:27:51.506Z,15.61
2022-09-10T08:30:19.381Z,15.71
2022-09-10T08:32:48.946Z,15.58
2022-09-10T08:35:22.209Z,15.63
2022-09-10T08:37:50.080Z,15.75
2022-09-10T08:40:18.222Z,15.76
2022-09-10T08:42:50.335Z,15.79
2022-09-10T08:45:23.444Z,15.85
2022-09-10T08:47:56.600Z,15.92
2022-09-10T08:50:28.752Z,15.88
2022-09-10T08:52:58.677Z,15.97
2022-09-10T08:55:31.627Z,15.93
2022-09-10T08:58:03.924Z,15.94
2022-09-10T09:00:34.680Z,15.99
2022-09-10T09:03:08.261Z,16.03
2022-09-10T09:05:41.907Z,16.16
2022-09-10T09:08:12.809Z,16.22
2022-09-10T09:10:45.064Z,16.17
2022-09-10T09:13:26.352Z,16.25
2022-09-10T09:16:00.965Z,16.35
2022-09-10T09:18:34.061Z,16.49
2022-09-10T09:21:06.557Z,16.71
2022-09-10T09:23:41.782Z,16.81
2022-09-10T09:26:16.324Z,16.91
2022-09-10T09:28:53.859Z,17.15
2022-09-10T09:31:24.275Z,17.55
2022-09-10T09:33:54.490Z,17.59
2022-09-10T09:36:26.983Z,17.59
2022-09-10T09:38:55.601Z,17.65
2022-09-10T09:41:28.851Z,17.73
2022-09-10T09:44:01.477Z,17.77
2022-09-10T09:46:29.345Z,17.80
2022-09-10T09:49:01.968Z,17.76
2022-09-10T09:51:35.440Z,17.88
2022-09-10T09:54:39.361Z,17.87
2022-09-10T09:56:58.911Z,17.94
2022-09-10T09:59:29.906Z,17.86
2022-09-10T10:02:00.412Z,17.55
2022-09-10T10:04:31.142Z,17.70
2022-09-10T10:06:59.988Z,17.77
2022-09-10T10:09:29.328Z,17.78
2022-09-10T10:11:58.420Z,17.71
2022-09-10T10:14:38.146Z,17.50
2022-09-10T10:17:20.853Z,17.48
2022-09-10T10:19:58.976Z,17.57
2022-09-10T10:22:27.830Z,17.65
2022-09-10T10:24:55.751Z,17.65
2022-09-10T10:27:28.065Z,17.70
2022-09-10T10:29:59.444Z,17.55
2022-09-10T10:32:34.661Z,17.59
2022-09-10T10:35:16.514Z,17.70
2022-09-10T10:37:50.010Z,17.82
2022-09-10T10:40:23.112Z,17.96
2022-09-10T10:42:55.468Z,18.13
2022-09-10T10:45:35.140Z,18.33
2022-09-10T10:48:05.155Z,18.45
2022-09-10T10:50:38.569Z,18.42
2022-09-10T10:53:15.636Z,18.37
2022-09-10T10:55:46.609Z,18.27
2022-09-10T10:58:30.129Z,18.38
2022-09-10T11:01:03.487Z,18.46
2022-09-10T11:03:35.684Z,18.56
2022-09-10T11:06:07.056Z,18.47
2022-09-10T11:08:38.771Z,18.52
2022-09-10T11:11:11.022Z,18.63
2022-09-10T11:13:41.535Z,18.53
2022-09-10T11:16:16.725Z,18.60
2022-09-10T11:18:46.504Z,18.52
2022-09-10T11:21:19.068Z,18.40
2022-09-10T11:23:47.902Z,18.25
2022-09-10T11:26:19.777Z,18.22
2022-09-10T11:28:54.346Z,18.23
2022-09-10T11:31:30.413Z,18.62
2022-09-10T11:34:00.567Z,18.94
2022-09-10T11:36:30.643Z,19.32
2022-09-10T11:39:03.316Z,19.21
2022-09-10T11:41:32.726Z,18.98
2022-09-10T11:44:05.758Z,18.70
2022-09-10T11:46:37.341Z,18.53
2022-09-10T11:49:08.920Z,18.47
2022-09-10T11:51:38.094Z,18.54
2022-09-10T11:54:07.264Z,18.52
2022-09-10T11:56:45.934Z,18.58
2022-09-10T11:59:19.433Z,18.51
2022-09-10T12:02:07.091Z,18.48
2022-09-10T12:04:47.363Z,18.39
2022-09-10T12:07:26.972Z,18.32
2022-09-10T12:10:05.383Z,18.35
2022-09-10T12:12:38.837Z,18.52
2022-09-10T12:15:08.884Z,18.85
2022-09-10T12:17:40.407Z,18.96
2022-09-10T12:20:14.483Z,18.94
2022-09-10T12:22:43.072Z,18.83
2022-09-10T12:25:24.991Z,18.78
2022-09-10T12:27:53.977Z,18.74
2022-09-10T12:30:40.196Z,18.74
2022-09-10T12:33:36.117Z,18.78
2022-09-10T12:36:04.526Z,18.73
2022-09-10T12:38:51.895Z,18.75
2022-09-10T12:41:42.807Z,18.83
2022-09-10T12:44:25.879Z,18.73
2022-09-10T12:47:20.086Z,18.77
2022-09-10T12:49:50.830Z,18.75
2022-09-10T12:52:24.295Z,18.71
2022-09-10T12:54:56.890Z,18.74
2022-09-10T12:57:29.043Z,18.81
2022-09-10T13:00:17.829Z,18.76
2022-09-10T13:02:50.769Z,18.80
2022-09-10T13:05:24.395Z,18.80
2022-09-10T13:07:58.663Z,18.81
2022-09-10T13:10:27.646Z,18.86
2022-09-10T13:12:58.145Z,18.84
2022-09-10T13:15:27.557Z,18.97
2022-09-10T13:18:29.435Z,18.93
2022-09-10T13:20:59.845Z,19.13
2022-09-10T13:23:47.639Z,19.21
2022-09-10T13:26:38.412Z,19.22
2022-09-10T13:29:11.363Z,19.13
2022-09-10T13:31:41.118Z,19.19
2022-09-10T13:34:29.921Z,19.18
2022-09-10T13:37:04.854Z,19.04
2022-09-10T13:39:44.053Z,19.18
2022-09-10T13:42:34.978Z,19.10
2022-09-10T13:45:13.990Z,18.94
2022-09-10T13:47:47.379Z,19.05
2022-09-10T13:50:17.010Z,19.12
2022-09-10T13:52:48.266Z,19.14
2022-09-10T13:55:18.495Z,19.08
2022-09-10T13:57:48.855Z,18.92
2022-09-10T14:00:21.830Z,18.88
2022-09-10T14:02:50.857Z,18.90
2022-09-10T14:05:24.294Z,18.86
2022-09-10T14:07:55.011Z,18.80
2022-09-10T14:10:23.463Z,18.98
2022-09-10T14:12:52.450Z,19.03
2022-09-10T14:15:21.926Z,19.05
2022-09-10T14:17:52.062Z,19.09
2022-09-10T14:20:25.296Z,19.12
2022-09-10T14:23:01.884Z,19.13
2022-09-10T14:25:31.739Z,19.21
2022-09-10T14:28:26.880Z,19.27
2022-09-10T14:31:09.866Z,19.33
2022-09-10T14:33:39.658Z,19.42
2022-09-10T14:36:16.211Z,19.39
2022-09-10T14:38:54.062Z,19.42
2022-09-10T14:41:23.232Z,19.55
2022-09-10T14:44:07.995Z,19.50
2022-09-10T14:46:54.175Z,19.65
2022-09-10T14:49:26.753Z,19.72
2022-09-10T14:52:00.293Z,19.69
2022-09-10T14:54:30.358Z,19.75
2022-09-10T14:57:04.009Z,19.55
2022-09-10T14:59:35.344Z,19.54
2022-09-10T15:02:13.715Z,19.60
2022-09-10T15:04:42.833Z,19.65
2022-09-10T15:07:11.152Z,19.72
2022-09-10T15:09:41.116Z,19.72
2022-09-10T15:12:10.361Z,19.70
2022-09-10T15:14:38.900Z,19.68
2022-09-10T15:17:06.901Z,19.70
2022-09-10T15:19:34.830Z,19.78
2022-09-10T15:22:03.000Z,19.79
2022-09-10T15:24:47.216Z,19.74
2022-09-10T15:27:21.532Z,19.72
2022-09-10T15:29:49.913Z,19.76
2022-09-10T15:32:18.321Z,19.77
2022-09-10T15:34:46.225Z,19.80
2022-09-10T15:37:14.225Z,19.78
2022-09-10T15:39:42.453Z,19.70
2022-09-10T15:42:10.437Z,19.64
2022-09-10T15:44:40.564Z,19.56
2022-09-10T15:47:08.461Z,19.62
2022-09-10T15:49:36.448Z,19.57
2022-09-10T15:52:05.084Z,19.55
2022-09-10T15:54:33.428Z,19.53
2022-09-10T15:57:01.496Z,19.53
2022-09-10T15:59:29.580Z,19.51
2022-09-10T16:01:59.025Z,19.50
2022-09-10T16:04:30.717Z,19.55
2022-09-10T16:07:02.159Z,19.51
2022-09-10T16:09:30.297Z,19.51
2022-09-10T16:11:58.302Z,19.56
2022-09-10T16:14:26.192Z,19.55
2022-09-10T16:16:54.163Z,19.55
2022-09-10T16:19:24.592Z,19.52
2022-09-10T16:21:53.165Z,19.42
2022-09-10T16:24:21.221Z,19.43
2022-09-10T16:26:49.253Z,19.49
2022-09-10T16:29:18.385Z,19.54
2022-09-10T16:31:46.617Z,19.48
2022-09-10T16:34:17.540Z,19.51
2022-09-10T16:36:48.984Z,19.55
2022-09-10T16:39:17.895Z,19.54
2022-09-10T16:41:47.142Z,19.53
2022-09-10T16:44:18.454Z,19.53
2022-09-10T16:46:47.312Z,19.52
2022-09-10T16:49:17.268Z,19.54
2022-09-10T16:51:47.582Z,19.58
2022-09-10T16:54:19.516Z,19.56
2022-09-10T16:56:48.798Z,19.60
2022-09-10T16:59:18.130Z,19.63
2022-09-10T17:01:48.611Z,19.56
2022-09-10T17:04:24.647Z,19.49
2022-09-10T17:06:57.659Z,19.55
2022-09-10T17:09:25.864Z,19.57
2022-09-10T17:11:53.763Z,19.57
2022-09-10T17:14:21.986Z,19.58
2022-09-10T17:16:51.157Z,19.55
2022-09-10T17:19:20.297Z,19.59
2022-09-10T17:21:51.331Z,19.53
2022-09-10T17:24:22.705Z,19.55
2022-09-10T17:26:51.396Z,19.55
2022-09-10T17:29:20.482Z,19.49
2022-09-10T17:31:48.947Z,19.47
2022-09-10T17:34:17.539Z,19.49
2022-09-10T17:36:46.924Z,19.49
2022-09-10T17:39:15.932Z,19.48
2022-09-10T17:41:45.457Z,19.48
2022-09-10T17:44:14.643Z,19.46
2022-09-10T17:46:42.991Z,19.39
2022-09-10T17:49:13.793Z,19.34
2022-09-10T17:51:46.862Z,19.37
2022-09-10T17:54:19.549Z,19.29
2022-09-10T17:56:50.674Z,19.22
2022-09-10T17:59:19.075Z,19.22
2022-09-10T18:01:47.660Z,19.20
2022-09-10T18:04:16.064Z,19.27
2022-09-10T18:06:48.955Z,19.22
2022-09-10T18:09:19.784Z,19.21
2022-09-10T18:11:47.826Z,19.22
2022-09-10T18:14:18.592Z,19.19
2022-09-10T18:16:46.698Z,19.17
2022-09-10T18:19:15.886Z,19.07
2022-09-10T18:21:44.915Z,19.02
2022-09-10T18:24:14.323Z,19.07
2022-09-10T18:26:43.499Z,19.04
2022-09-10T18:29:13.844Z,19.03
2022-09-10T18:31:44.383Z,19.02
2022-09-10T18:34:13.623Z,18.98
2022-09-10T18:36:42.096Z,18.85
2022-09-10T18:39:11.751Z,18.78
2022-09-10T18:41:40.540Z,18.71
2022-09-10T18:44:12.079Z,18.71
2022-09-10T18:46:40.780Z,18.66
2022-09-10T18:49:12.223Z,18.66
2022-09-10T18:51:42.259Z,18.64
2022-09-10T18:54:12.439Z,18.60
2022-09-10T18:56:41.278Z,18.58
2022-09-10T18:59:12.122Z,18.54
2022-09-10T19:01:40.973Z,18.48
2022-09-10T19:04:10.978Z,18.44
2022-09-10T19:06:40.877Z,18.38
2022-09-10T19:09:09.680Z,18.31
2022-09-10T19:11:38.735Z,18.28
2022-09-10T19:14:08.510Z,18.25
2022-09-10T19:16:37.323Z,18.16
2022-09-10T19:19:06.136Z,18.14
2022-09-10T19:21:36.856Z,18.11
2022-09-10T19:24:05.147Z,18.12
2022-09-10T19:26:34.489Z,18.12
2022-09-10T19:29:04.040Z,18.10
2022-09-10T19:31:33.572Z,18.10
2022-09-10T19:34:02.271Z,18.07
2022-09-10T19:36:33.335Z,18.04
2022-09-10T19:39:04.800Z,18.06
2022-09-10T19:41:34.036Z,18.06
2022-09-10T19:44:02.655Z,18.04
2022-09-10T19:46:31.102Z,18.04
2022-09-10T19:49:00.209Z,18.04
2022-09-10T19:51:28.982Z,18.01
2022-09-10T19:53:57.152Z,17.99
2022-09-10T19:56:27.890Z,17.98
2022-09-10T19:58:56.696Z,17.96
2022-09-10T20:01:25.699Z,17.92
2022-09-10T20:03:54.255Z,17.85
2022-09-10T20:06:25.524Z,17.82
2022-09-10T20:08:53.534Z,17.79
2022-09-10T20:11:22.628Z,17.77
2022-09-10T20:13:55.247Z,17.71
2022-09-10T20:16:23.778Z,17.69
2022-09-10T20:18:51.739Z,17.66
2022-09-10T20:21:21.501Z,17.61
2022-09-10T20:23:50.924Z,17.55
2022-09-10T20:26:19.869Z,17.53
2022-09-10T20:28:52.129Z,17.48
2022-09-10T20:31:22.187Z,17.46
2022-09-10T20:33:54.664Z,17.44
2022-09-10T20:36:22.974Z,17.41
2022-09-10T20:38:50.777Z,17.38
2022-09-10T20:41:19.124Z,17.32
2022-09-10T20:43:51.120Z,17.35
2022-09-10T20:46:19.441Z,17.32
2022-09-10T20:48:49.593Z,17.28
2022-09-10T20:51:18.847Z,17.28
2022-09-10T20:53:47.192Z,17.27
2022-09-10T20:56:17.616Z,17.24
2022-09-10T20:58:46.288Z,17.21
2022-09-10T21:01:16.620Z,17.18
2022-09-10T21:03:44.749Z,17.16
2022-09-10T21:06:14.615Z,17.14
2022-09-10T21:08:43.236Z,17.11
2022-09-10T21:11:12.368Z,17.08
2022-09-10T21:13:43.424Z,17.05
2022-09-10T21:16:12.934Z,17.08
2022-09-10T21:18:42.530Z,17.06
2022-09-10T21:21:11.594Z,17.03
2022-09-10T21:23:44.908Z,17.01
2022-09-10T21:26:13.308Z,17.00
2022-09-10T21:28:41.579Z,17.01
2022-09-10T21:31:10.377Z,17.01
2022-09-10T21:33:38.423Z,16.99
2022-09-10T21:36:07.457Z,16.96
2022-09-10T21:38:36.003Z,16.93
2022-09-10T21:41:06.508Z,16.93
2022-09-10T21:43:35.806Z,16.89
2022-09-10T21:46:04.668Z,16.88
2022-09-10T21:48:35.885Z,16.84
2022-09-10T21:51:05.242Z,16.81
2022-09-10T21:53:33.676Z,16.80
2022-09-10T21:56:02.173Z,16.78
2022-09-10T21:58:34.164Z,16.75
2022-09-10T22:01:02.309Z,16.72
2022-09-10T22:03:31.453Z,16.71
2022-09-10T22:06:04.907Z,16.68
2022-09-10T22:08:33.283Z,16.69
2022-09-10T22:11:06.762Z,16.64
2022-09-10T22:13:37.848Z,16.64
2022-09-10T22:16:06.852Z,16.61
2022-09-10T22:18:35.231Z,16.61
2022-09-10T22:21:03.245Z,16.59
2022-09-10T22:23:31.638Z,16.56
2022-09-10T22:26:04.185Z,16.57
2022-09-10T22:28:34.882Z,16.57
2022-09-10T22:31:08.774Z,16.55
2022-09-10T22:33:38.174Z,16.53
2022-09-10T22:36:09.676Z,16.54
2022-09-10T22:38:37.574Z,16.50
2022-09-10T22:41:07.841Z,16.46
2022-09-10T22:43:36.425Z,16.48
2022-09-10T22:46:06.814Z,16.45
2022-09-10T22:48:37.688Z,16.43
2022-09-10T22:51:05.688Z,16.38
2022-09-10T22:53:33.598Z,16.37
2022-09-10T22:56:02.228Z,16.32
2022-09-10T22:58:30.073Z,16.31
2022-09-10T23:01:03.350Z,16.27
2022-09-10T23:03:31.341Z,16.23
2022-09-10T23:06:06.297Z,16.21
2022-09-10T23:08:34.642Z,16.17
2022-09-10T23:11:09.405Z,16.15
2022-09-10T23:13:37.293Z,16.14
2022-09-10T23:16:12.476Z,16.14
2022-09-10T23:18:41.000Z,16.07
2022-09-10T23:21:10.766Z,16.04
2022-09-10T23:23:38.556Z,16.02
2022-09-10T23:26:08.344Z,15.99
2022-09-10T23:28:36.650Z,16.00
2022-09-10T23:31:08.371Z,15.92
2022-09-10T23:33:36.250Z,15.88
2022-09-10T23:36:04.265Z,15.85
2022-09-10T23:38:34.403Z,15.83
2022-09-10T23:41:02.866Z,15.81
2022-09-10T23:43:30.784Z,15.79
2022-09-10T23:45:59.277Z,15.72
2022-09-10T23:48:27.450Z,15.75
2022-09-10T23:50:55.563Z,15.70
2022-09-10T23:53:25.076Z,15.70
2022-09-10T23:55:54.558Z,15.66
2022-09-10T23:58:22.713Z,15.66
